createdAt,value
2019-03-21T00:01:52.951Z,159.93
2019-03-21T00:04:21.420Z,158.25
2019-03-21T00:06:49.887Z,154.12
2019-03-21T00:09:19.538Z,158.10
2019-03-21T00:14:50.007Z,163.47
2019-03-21T00:17:34.043Z,161.15
2019-03-21T00:20:02.734Z,172.98
2019-03-21T00:22:31.289Z,178.80
2019-03-21T00:24:59.751Z,173.80
2019-03-21T00:27:28.735Z,169.45
2019-03-21T00:29:57.191Z,181.82
2019-03-21T00:32:25.727Z,177.62
2019-03-21T00:34:54.216Z,179.20
2019-03-21T00:37:22.680Z,192.05
2019-03-21T00:39:51.167Z,192.07
2019-03-21T00:42:19.799Z,190.75
2019-03-21T00:44:48.264Z,185.57
2019-03-21T00:47:16.744Z,189.13
2019-03-21T00:49:45.231Z,233.25
2019-03-21T00:52:13.699Z,216.63
2019-03-21T00:54:42.170Z,183.87
2019-03-21T00:57:10.663Z,185.43
2019-03-21T00:59:39.127Z,176.85
2019-03-21T01:02:07.592Z,182.10
2019-03-21T01:04:36.082Z,181.32
2019-03-21T01:07:05.459Z,172.93
2019-03-21T01:09:34.061Z,170.55
2019-03-21T01:12:02.692Z,170.38
2019-03-21T01:14:31.159Z,181.85
2019-03-21T01:16:59.691Z,158.63
2019-03-21T01:19:28.183Z,145.15
2019-03-21T01:21:56.648Z,152.90
2019-03-21T01:24:25.120Z,139.07
2019-03-21T01:26:53.623Z,142.50
2019-03-21T01:29:23.256Z,130.50
2019-03-21T01:34:19.422Z,132.25
2019-03-21T01:36:47.883Z,129.18
2019-03-21T01:39:16.343Z,126.45
2019-03-21T01:41:44.874Z,124.30
2019-03-21T01:44:13.331Z,132.00
2019-03-21T01:46:41.798Z,127.20
2019-03-21T01:49:10.294Z,119.08
2019-03-21T01:51:38.759Z,121.17
2019-03-21T01:54:07.303Z,133.75
2019-03-21T01:56:35.820Z,128.10
2019-03-21T01:59:04.527Z,121.53
2019-03-21T02:01:33.173Z,115.92
2019-03-21T02:04:01.740Z,124.43
2019-03-21T02:06:30.196Z,115.57
2019-03-21T02:08:58.659Z,108.67
2019-03-21T02:11:27.220Z,105.85
2019-03-21T02:13:55.679Z,108.07
2019-03-21T02:16:24.147Z,107.37
2019-03-21T02:18:52.636Z,97.20
2019-03-21T02:21:21.165Z,102.15
2019-03-21T02:23:49.620Z,96.82
2019-03-21T02:26:18.109Z,94.10
2019-03-21T02:28:46.565Z,88.52
2019-03-21T02:31:15.518Z,82.50
2019-03-21T02:33:45.275Z,89.92
2019-03-21T02:38:42.151Z,90.32
2019-03-21T02:41:13.427Z,82.57
2019-03-21T02:43:41.953Z,87.02
2019-03-21T02:46:10.482Z,79.25
2019-03-21T02:48:38.977Z,82.82
2019-03-21T02:51:08.280Z,77.67
2019-03-21T02:53:36.860Z,84.83
2019-03-21T02:56:09.059Z,80.32
2019-03-21T02:58:37.591Z,79.77
2019-03-21T03:01:06.054Z,82.92
2019-03-21T03:03:34.619Z,78.47
2019-03-21T03:06:03.153Z,77.20
2019-03-21T03:08:31.741Z,79.10
2019-03-21T03:11:03.345Z,76.70
2019-03-21T03:13:31.976Z,82.22
2019-03-21T03:16:00.433Z,81.37
2019-03-21T03:18:28.916Z,79.17
2019-03-21T03:20:57.523Z,80.90
2019-03-21T03:23:25.994Z,81.08
2019-03-21T03:25:54.492Z,81.35
2019-03-21T03:28:32.072Z,77.67
2019-03-21T03:31:00.668Z,72.50
2019-03-21T03:33:29.917Z,74.95
2019-03-21T03:35:58.457Z,75.42
2019-03-21T03:38:27.065Z,80.35
2019-03-21T03:41:02.791Z,81.87
2019-03-21T03:43:31.279Z,72.15
2019-03-21T03:45:59.818Z,82.47
2019-03-21T03:48:28.789Z,67.53
2019-03-21T03:50:57.355Z,67.42
2019-03-21T03:53:25.894Z,70.60
2019-03-21T03:55:54.424Z,69.12
2019-03-21T03:58:27.703Z,66.35
2019-03-21T04:00:57.089Z,66.28
2019-03-21T04:03:27.367Z,72.22
2019-03-21T04:05:56.115Z,65.22
2019-03-21T04:08:24.579Z,69.00
2019-03-21T04:10:54.549Z,65.12
2019-03-21T04:13:23.127Z,66.42
2019-03-21T04:15:53.804Z,67.53
2019-03-21T04:18:23.882Z,62.70
2019-03-21T04:21:10.223Z,62.78
2019-03-21T04:23:38.761Z,62.40
2019-03-21T04:26:28.539Z,62.73
2019-03-21T04:28:57.000Z,59.98
2019-03-21T04:31:25.458Z,60.33
2019-03-21T04:33:57.092Z,66.33
2019-03-21T04:36:25.748Z,69.85
2019-03-21T04:38:54.301Z,72.53
2019-03-21T04:41:22.869Z,69.03
2019-03-21T04:43:51.395Z,62.53
2019-03-21T04:46:19.929Z,65.60
2019-03-21T04:48:48.420Z,70.78
2019-03-21T04:51:16.885Z,66.90
2019-03-21T04:53:45.354Z,66.47
2019-03-21T04:56:13.932Z,63.38
2019-03-21T04:58:42.455Z,59.25
2019-03-21T05:01:10.907Z,61.53
2019-03-21T05:03:39.390Z,69.40
2019-03-21T05:06:07.856Z,63.25
2019-03-21T05:08:36.323Z,62.53
2019-03-21T05:11:04.815Z,76.90
2019-03-21T05:13:33.271Z,69.30
2019-03-21T05:16:01.859Z,72.45
2019-03-21T05:18:33.838Z,64.00
2019-03-21T05:21:04.359Z,64.25
2019-03-21T05:23:32.836Z,66.37
2019-03-21T05:26:03.842Z,67.27
2019-03-21T05:28:31.507Z,61.98
2019-03-21T05:31:12.326Z,63.17
2019-03-21T05:33:40.847Z,64.58
2019-03-21T05:36:09.311Z,62.65
2019-03-21T05:38:38.034Z,74.55
2019-03-21T05:41:06.495Z,76.00
2019-03-21T05:43:43.939Z,61.58
2019-03-21T05:46:12.467Z,58.45
2019-03-21T05:48:40.919Z,55.75
2019-03-21T05:51:09.415Z,57.67
2019-03-21T05:53:37.875Z,57.00
2019-03-21T05:56:06.575Z,60.17
2019-03-21T05:58:35.143Z,54.47
2019-03-21T06:01:09.472Z,55.23
2019-03-21T06:03:51.494Z,55.80
2019-03-21T06:06:25.613Z,58.20
2019-03-21T06:08:54.144Z,60.38
2019-03-21T06:11:22.860Z,52.67
2019-03-21T06:13:51.394Z,59.88
2019-03-21T06:16:19.847Z,54.48
2019-03-21T06:18:54.011Z,53.50
2019-03-21T06:21:40.476Z,56.65
2019-03-21T06:24:26.995Z,50.40
2019-03-21T06:27:27.047Z,51.08
2019-03-21T06:29:55.979Z,51.13
2019-03-21T06:32:25.700Z,54.40
2019-03-21T06:37:22.240Z,53.05
2019-03-21T06:39:50.996Z,55.50
2019-03-21T06:42:19.531Z,61.27
2019-03-21T06:44:48.037Z,51.75
2019-03-21T06:47:16.578Z,50.08
2019-03-21T06:49:46.587Z,54.20
2019-03-21T06:52:15.307Z,60.48
2019-03-21T06:54:43.785Z,62.65
2019-03-21T06:57:12.336Z,55.17
2019-03-21T06:59:40.835Z,56.55
2019-03-21T07:02:09.369Z,56.33
2019-03-21T07:04:37.825Z,57.53
2019-03-21T07:07:08.510Z,55.88
2019-03-21T07:09:36.596Z,58.00
2019-03-21T07:12:05.272Z,55.48
2019-03-21T07:14:33.763Z,54.13
2019-03-21T07:17:02.252Z,55.75
2019-03-21T07:19:30.779Z,56.02
2019-03-21T07:21:59.295Z,62.78
2019-03-21T07:24:27.831Z,59.90
2019-03-21T07:26:56.356Z,68.33
2019-03-21T07:29:24.928Z,60.28
2019-03-21T07:31:53.473Z,70.37
2019-03-21T07:34:22.008Z,67.27
2019-03-21T07:36:50.587Z,66.17
2019-03-21T07:39:19.120Z,63.55
2019-03-21T07:41:47.832Z,66.40
2019-03-21T07:44:16.379Z,68.40
2019-03-21T07:46:44.860Z,68.83
2019-03-21T07:49:13.319Z,74.75
2019-03-21T07:51:41.896Z,74.00
2019-03-21T07:54:10.374Z,65.85
2019-03-21T07:56:38.923Z,73.50
2019-03-21T07:59:07.468Z,60.95
2019-03-21T08:01:35.997Z,64.82
2019-03-21T08:04:04.639Z,60.58
2019-03-21T08:06:33.211Z,65.67
2019-03-21T08:09:01.687Z,65.67
2019-03-21T08:11:30.147Z,68.70
2019-03-21T08:13:58.802Z,63.48
2019-03-21T08:16:30.522Z,71.27
2019-03-21T08:18:58.996Z,70.55
2019-03-21T08:21:27.491Z,68.40
2019-03-21T08:23:56.047Z,69.17
2019-03-21T08:26:24.680Z,65.12
2019-03-21T08:28:53.224Z,65.32
2019-03-21T08:31:21.758Z,64.53
2019-03-21T08:33:50.298Z,73.07
2019-03-21T08:36:18.800Z,69.85
2019-03-21T08:38:48.720Z,70.60
2019-03-21T08:41:17.273Z,69.60
2019-03-21T08:43:46.720Z,67.80
2019-03-21T08:46:15.251Z,68.33
2019-03-21T08:48:43.889Z,61.88
2019-03-21T08:51:14.235Z,68.40
2019-03-21T08:53:42.791Z,63.30
2019-03-21T08:56:11.269Z,69.82
2019-03-21T08:58:39.835Z,68.00
2019-03-21T09:01:08.364Z,64.72
2019-03-21T09:03:36.829Z,66.50
2019-03-21T09:06:05.456Z,76.35
2019-03-21T09:08:33.997Z,66.50
2019-03-21T09:11:02.520Z,74.87
2019-03-21T09:13:31.009Z,75.25
2019-03-21T09:15:59.547Z,74.42
2019-03-21T09:18:28.083Z,71.50
2019-03-21T09:20:57.456Z,68.67
2019-03-21T09:23:25.993Z,71.82
2019-03-21T09:25:54.456Z,71.87
2019-03-21T09:28:22.965Z,68.62
2019-03-21T09:30:51.499Z,77.20
2019-03-21T09:33:20.221Z,84.75
2019-03-21T09:35:49.992Z,69.53
2019-03-21T09:40:46.143Z,99.67
2019-03-21T09:43:14.655Z,103.75
2019-03-21T09:45:43.405Z,113.88
2019-03-21T09:48:11.864Z,90.03
2019-03-21T09:50:40.372Z,129.32
2019-03-21T09:53:08.839Z,123.13
2019-03-21T09:55:37.295Z,71.70
2019-03-21T09:58:05.811Z,78.83
2019-03-21T10:00:36.094Z,67.55
2019-03-21T10:03:05.576Z,62.20
2019-03-21T10:05:34.162Z,66.55
2019-03-21T10:08:03.081Z,62.35
2019-03-21T10:10:34.050Z,68.90
2019-03-21T10:13:02.605Z,61.70
2019-03-21T10:15:31.153Z,62.13
2019-03-21T10:17:59.969Z,68.50
2019-03-21T10:20:28.532Z,70.73
2019-03-21T10:22:57.081Z,64.97
2019-03-21T10:25:26.823Z,71.37
2019-03-21T10:27:55.605Z,62.13
2019-03-21T10:30:35.224Z,67.95
2019-03-21T10:35:32.817Z,58.28
2019-03-21T10:38:01.522Z,71.80
2019-03-21T10:40:30.084Z,63.42
2019-03-21T10:42:58.953Z,74.70
2019-03-21T10:45:27.479Z,64.20
2019-03-21T10:47:56.142Z,66.72
2019-03-21T10:50:35.880Z,78.87
2019-03-21T10:55:32.443Z,76.65
2019-03-21T10:58:00.992Z,91.42
2019-03-21T11:00:29.630Z,72.37
2019-03-21T11:02:58.161Z,72.05
2019-03-21T11:05:26.695Z,86.82
2019-03-21T11:07:55.184Z,80.07
2019-03-21T11:10:23.674Z,64.12
2019-03-21T11:12:52.345Z,70.17
2019-03-21T11:15:20.839Z,71.90
2019-03-21T11:17:49.949Z,64.12
2019-03-21T11:20:38.510Z,74.77
2019-03-21T11:23:07.681Z,68.10
2019-03-21T11:25:36.359Z,77.60
2019-03-21T11:28:05.092Z,65.97
2019-03-21T11:30:35.783Z,70.90
2019-03-21T11:33:04.788Z,55.63
2019-03-21T11:35:33.462Z,61.92
2019-03-21T11:38:01.998Z,61.13
2019-03-21T11:40:30.545Z,64.35
2019-03-21T11:42:59.560Z,75.50
2019-03-21T11:45:28.109Z,58.83
2019-03-21T11:48:00.479Z,64.90
2019-03-21T11:50:29.066Z,62.15
2019-03-21T11:52:57.599Z,58.08
2019-03-21T11:55:26.236Z,58.33
2019-03-21T11:57:54.919Z,55.75
2019-03-21T12:00:23.535Z,62.23
2019-03-21T12:02:52.134Z,52.40
2019-03-21T12:05:20.709Z,51.85
2019-03-21T12:07:49.235Z,49.73
2019-03-21T12:10:18.040Z,50.83
2019-03-21T12:12:46.668Z,45.10
2019-03-21T12:15:15.265Z,54.63
2019-03-21T12:17:43.800Z,51.18
2019-03-21T12:20:26.929Z,52.05
2019-03-21T12:22:56.637Z,58.13
2019-03-21T12:25:29.615Z,60.45
2019-03-21T12:27:58.275Z,64.95
2019-03-21T12:30:35.097Z,54.38
2019-03-21T12:33:03.704Z,67.20
2019-03-21T12:38:08.377Z,43.95
2019-03-21T12:40:36.987Z,48.80
2019-03-21T12:43:07.303Z,51.63
2019-03-21T12:45:35.869Z,54.00
2019-03-21T12:48:04.560Z,58.60
2019-03-21T12:50:33.030Z,51.53
2019-03-21T12:53:01.868Z,61.18
2019-03-21T12:55:30.417Z,62.43
2019-03-21T12:57:58.956Z,53.80
2019-03-21T13:00:32.835Z,54.83
2019-03-21T13:03:01.397Z,53.90
2019-03-21T13:05:30.970Z,51.33
2019-03-21T13:07:59.458Z,46.18
2019-03-21T13:10:27.991Z,50.45
2019-03-21T13:12:56.457Z,47.48
2019-03-21T13:15:29.899Z,49.95
2019-03-21T13:17:55.136Z,49.93
2019-03-21T13:20:23.605Z,52.03
2019-03-21T13:22:53.376Z,47.25
2019-03-21T13:25:22.165Z,51.02
2019-03-21T13:27:55.518Z,43.63
2019-03-21T13:30:24.815Z,51.30
2019-03-21T13:32:53.332Z,50.00
2019-03-21T13:35:32.122Z,49.53
2019-03-21T13:37:53.992Z,46.75
2019-03-21T13:40:22.357Z,45.40
2019-03-21T13:42:50.902Z,48.42
2019-03-21T13:45:19.465Z,45.48
2019-03-21T13:47:47.973Z,49.90
2019-03-21T13:50:16.602Z,48.83
2019-03-21T13:52:45.208Z,53.48
2019-03-21T13:55:14.136Z,42.85
2019-03-21T13:57:42.668Z,42.62
2019-03-21T14:00:17.327Z,43.05
2019-03-21T14:02:45.780Z,41.50
2019-03-21T14:05:14.983Z,37.17
2019-03-21T14:07:43.567Z,48.10
2019-03-21T14:10:12.198Z,46.48
2019-03-21T14:12:40.761Z,45.75
2019-03-21T14:15:12.419Z,43.63
2019-03-21T14:17:40.930Z,46.35
2019-03-21T14:20:11.008Z,43.28
2019-03-21T14:22:39.593Z,40.48
2019-03-21T14:25:08.264Z,42.00
2019-03-21T14:27:36.919Z,42.75
2019-03-21T14:30:11.262Z,45.95
2019-03-21T14:32:39.833Z,50.03
2019-03-21T14:35:08.797Z,46.75
2019-03-21T14:37:46.994Z,44.27
2019-03-21T14:40:15.811Z,54.35
2019-03-21T14:42:44.753Z,50.50
2019-03-21T14:45:15.396Z,47.15
2019-03-21T14:47:44.299Z,43.25
2019-03-21T14:50:16.820Z,46.58
2019-03-21T14:52:45.460Z,46.08
2019-03-21T14:55:15.598Z,44.18
2019-03-21T14:57:44.962Z,39.33
2019-03-21T15:00:15.989Z,39.20
2019-03-21T15:02:44.535Z,36.63
2019-03-21T15:05:14.155Z,39.98
2019-03-21T15:07:42.731Z,39.10
2019-03-21T15:10:17.011Z,41.90
2019-03-21T15:12:45.565Z,42.20
2019-03-21T15:15:15.264Z,43.13
2019-03-21T15:17:43.983Z,39.08
2019-03-21T15:20:15.584Z,41.23
2019-03-21T15:22:44.143Z,41.92
2019-03-21T15:25:13.503Z,40.67
2019-03-21T15:27:42.105Z,47.43
2019-03-21T15:30:13.621Z,39.13
2019-03-21T15:32:42.301Z,41.25
2019-03-21T15:35:13.707Z,42.55
2019-03-21T15:37:42.174Z,35.35
2019-03-21T15:40:15.678Z,37.50
2019-03-21T15:42:44.479Z,37.48
2019-03-21T15:45:22.760Z,32.75
2019-03-21T15:47:47.819Z,32.60
2019-03-21T15:50:30.584Z,32.80
2019-03-21T15:52:59.349Z,36.98
2019-03-21T15:55:28.032Z,42.40
2019-03-21T15:57:56.620Z,40.80
2019-03-21T16:00:34.312Z,38.90
2019-03-21T16:03:04.036Z,40.33
2019-03-21T16:08:00.183Z,37.55
2019-03-21T16:10:28.962Z,41.45
2019-03-21T16:12:57.419Z,46.37
2019-03-21T16:15:26.349Z,44.20
2019-03-21T16:17:54.983Z,45.48
2019-03-21T16:20:23.605Z,44.05
2019-03-21T16:22:52.248Z,49.60
2019-03-21T16:25:20.820Z,51.77
2019-03-21T16:27:49.962Z,51.63
2019-03-21T16:30:21.305Z,52.00
2019-03-21T16:32:49.928Z,60.33
2019-03-21T16:35:18.582Z,52.67
2019-03-21T16:37:48.220Z,54.05
2019-03-21T16:40:17.161Z,63.68
2019-03-21T16:42:45.715Z,65.57
2019-03-21T16:45:16.068Z,62.08
2019-03-21T16:47:44.832Z,54.85
2019-03-21T16:50:14.611Z,55.90
2019-03-21T16:52:43.217Z,57.40
2019-03-21T16:55:13.977Z,53.38
2019-03-21T16:57:42.952Z,61.65
2019-03-21T17:00:14.383Z,71.55
2019-03-21T17:02:43.003Z,74.72
2019-03-21T17:05:12.312Z,71.60
2019-03-21T17:07:40.871Z,67.55
2019-03-21T17:10:11.769Z,72.82
2019-03-21T17:12:40.839Z,67.15
2019-03-21T17:17:45.431Z,71.75
2019-03-21T17:20:14.598Z,80.85
2019-03-21T17:22:43.145Z,79.10
2019-03-21T17:25:12.430Z,75.60
2019-03-21T17:27:40.899Z,80.38
2019-03-21T17:30:12.283Z,81.70
2019-03-21T17:32:40.883Z,83.75
2019-03-21T17:35:09.591Z,89.95
2019-03-21T17:37:38.861Z,105.53
2019-03-21T17:40:10.115Z,108.37
2019-03-21T17:42:38.721Z,117.82
2019-03-21T17:45:10.619Z,127.45
2019-03-21T17:47:39.199Z,134.07
2019-03-21T17:50:08.510Z,133.65
2019-03-21T17:52:36.971Z,149.12
2019-03-21T17:55:07.176Z,148.25
2019-03-21T17:57:35.720Z,126.10
2019-03-21T18:00:07.329Z,123.45
2019-03-21T18:02:35.896Z,129.72
2019-03-21T18:05:07.239Z,144.50
2019-03-21T18:07:35.692Z,131.95
2019-03-21T18:10:06.914Z,118.70
2019-03-21T18:12:35.516Z,127.53
2019-03-21T18:15:06.835Z,128.25
2019-03-21T18:17:35.331Z,114.22
2019-03-21T18:20:04.942Z,118.17
2019-03-21T18:22:33.400Z,122.02
2019-03-21T18:25:01.907Z,127.60
2019-03-21T18:27:30.372Z,133.63
2019-03-21T18:29:58.915Z,135.15
2019-03-21T18:32:27.499Z,129.25
2019-03-21T18:34:56.039Z,129.55
2019-03-21T18:37:24.595Z,136.88
2019-03-21T18:39:53.208Z,154.75
2019-03-21T18:42:21.668Z,166.15
2019-03-21T18:44:50.596Z,172.02
2019-03-21T18:47:19.208Z,171.75
2019-03-21T18:49:48.820Z,188.12
2019-03-21T18:52:17.391Z,184.23
2019-03-21T18:54:45.884Z,171.02
2019-03-21T18:57:14.363Z,149.50
2019-03-21T18:59:42.963Z,145.43
2019-03-21T19:02:11.539Z,149.55
2019-03-21T19:04:40.005Z,143.70
2019-03-21T19:07:08.649Z,155.40
2019-03-21T19:09:37.231Z,157.43
2019-03-21T19:12:05.784Z,152.02
2019-03-21T19:14:34.331Z,158.40
2019-03-21T19:17:02.829Z,152.95
2019-03-21T19:19:31.290Z,156.93
2019-03-21T19:21:59.933Z,193.68
2019-03-21T19:24:28.563Z,142.60
2019-03-21T19:26:57.093Z,150.45
2019-03-21T19:29:25.575Z,142.53
2019-03-21T19:31:54.084Z,148.15
2019-03-21T19:34:22.556Z,149.97
2019-03-21T19:36:51.058Z,163.07
2019-03-21T19:39:19.648Z,168.75
2019-03-21T19:41:49.899Z,162.43
2019-03-21T19:44:18.447Z,163.45
2019-03-21T19:46:46.944Z,149.40
2019-03-21T19:49:15.419Z,149.75
2019-03-21T19:51:43.962Z,147.60
2019-03-21T19:54:12.541Z,150.47
2019-03-21T19:56:41.174Z,157.00
2019-03-21T19:59:12.392Z,175.07
2019-03-21T20:01:43.426Z,173.50
2019-03-21T20:04:12.564Z,168.02
2019-03-21T20:06:41.539Z,163.90
2019-03-21T20:09:10.254Z,168.70
2019-03-21T20:11:38.807Z,161.00
2019-03-21T20:14:07.357Z,165.18
2019-03-21T20:16:35.911Z,161.90
2019-03-21T20:19:04.543Z,161.82
2019-03-21T20:21:33.040Z,166.73
2019-03-21T20:24:01.636Z,180.27
2019-03-21T20:26:30.243Z,196.45
2019-03-21T20:28:58.793Z,200.53
2019-03-21T20:31:27.359Z,171.18
2019-03-21T20:33:55.911Z,184.75
2019-03-21T20:36:24.385Z,180.27
2019-03-21T20:38:54.156Z,213.72
2019-03-21T20:43:52.562Z,191.62
2019-03-21T20:46:21.152Z,195.22
2019-03-21T20:48:53.322Z,197.05
2019-03-21T20:51:23.774Z,206.75
2019-03-21T20:53:52.512Z,210.68
2019-03-21T20:56:20.984Z,227.00
2019-03-21T20:58:55.527Z,250.13
2019-03-21T21:01:24.186Z,224.32
2019-03-21T21:03:52.776Z,200.87
2019-03-21T21:06:24.576Z,311.62
2019-03-21T21:08:53.104Z,207.40
2019-03-21T21:11:22.660Z,197.70
2019-03-21T21:13:51.211Z,197.57
2019-03-21T21:16:19.730Z,205.27
2019-03-21T21:18:48.292Z,212.08
2019-03-21T21:21:16.797Z,201.73
2019-03-21T21:23:45.347Z,196.12
2019-03-21T21:26:13.893Z,197.55
2019-03-21T21:28:45.369Z,209.80
2019-03-21T21:31:14.011Z,201.27
2019-03-21T21:33:42.577Z,204.18
2019-03-21T21:36:21.612Z,206.25
2019-03-21T21:38:41.336Z,208.90
2019-03-21T21:41:09.882Z,202.95
2019-03-21T21:43:38.410Z,218.48
2019-03-21T21:46:06.917Z,214.65
2019-03-21T21:48:35.451Z,221.07
2019-03-21T21:51:03.921Z,210.05
2019-03-21T21:53:32.487Z,210.93
2019-03-21T21:56:00.952Z,219.03
2019-03-21T21:58:29.410Z,210.25
2019-03-21T22:00:57.920Z,200.07
2019-03-21T22:03:26.461Z,197.53
2019-03-21T22:05:54.991Z,200.93
2019-03-21T22:08:23.501Z,205.90
2019-03-21T22:10:52.178Z,187.37
2019-03-21T22:13:21.391Z,197.68
2019-03-21T22:15:49.900Z,181.97
2019-03-21T22:18:18.363Z,177.70
2019-03-21T22:20:46.844Z,179.63
2019-03-21T22:23:15.347Z,171.82
2019-03-21T22:25:43.884Z,179.45
2019-03-21T22:28:12.339Z,179.53
2019-03-21T22:30:40.840Z,175.97
2019-03-21T22:33:09.304Z,183.32
2019-03-21T22:35:37.763Z,180.12
2019-03-21T22:38:06.349Z,190.18
2019-03-21T22:40:35.287Z,207.77
2019-03-21T22:43:03.747Z,157.50
2019-03-21T22:45:32.323Z,216.00
2019-03-21T22:48:00.787Z,268.97
2019-03-21T22:50:29.258Z,221.22
2019-03-21T22:52:57.750Z,218.95
2019-03-21T22:55:26.216Z,193.93
2019-03-21T22:57:54.690Z,184.15
2019-03-21T23:00:25.159Z,176.25
2019-03-21T23:02:53.628Z,163.87
2019-03-21T23:05:22.503Z,155.03
2019-03-21T23:07:51.024Z,191.50
2019-03-21T23:10:19.627Z,201.58
2019-03-21T23:12:48.230Z,183.70
2019-03-21T23:15:17.936Z,169.30
2019-03-21T23:17:46.464Z,168.87
2019-03-21T23:20:15.661Z,175.32
2019-03-21T23:22:44.323Z,216.05
2019-03-21T23:25:16.264Z,232.77
2019-03-21T23:27:44.335Z,239.35
2019-03-21T23:30:18.143Z,247.75
2019-03-21T23:32:46.607Z,265.52
2019-03-21T23:35:15.219Z,271.85
2019-03-21T23:37:43.866Z,245.05
2019-03-21T23:40:15.747Z,256.10
2019-03-21T23:42:44.359Z,249.58
2019-03-21T23:45:13.912Z,251.27
2019-03-21T23:47:42.523Z,248.85
2019-03-21T23:50:13.431Z,245.02
2019-03-21T23:52:42.070Z,255.90
2019-03-21T23:55:11.367Z,255.90
2019-03-21T23:57:39.847Z,250.32
